sensor_id;sensor_type;location;lat;lon;timestamp;pressure;altitude;pressure_sealevel;temperature;humidity
58367;BME280;57745;42.524;12.052;2023-03-01T00:00:40;95954.00;;;11.99;56.73
58367;BME280;57745;42.524;12.052;2023-03-01T00:03:05;95949.63;;;12.01;56.33
58367;BME280;57745;42.524;12.052;2023-03-01T00:05:31;95945.94;;;11.86;56.57
58367;BME280;57745;42.524;12.052;2023-03-01T00:07:57;95937.97;;;11.92;56.16
58367;BME280;57745;42.524;12.052;2023-03-01T00:10:22;95938.63;;;12.05;55.61
58367;BME280;57745;42.524;12.052;2023-03-01T00:12:48;95926.72;;;12.11;55.86
58367;BME280;57745;42.524;12.052;2023-03-01T00:15:13;95930.66;;;12.10;55.92
58367;BME280;57745;42.524;12.052;2023-03-01T00:17:39;95919.63;;;12.14;55.58
58367;BME280;57745;42.524;12.052;2023-03-01T00:20:05;95925.31;;;11.98;56.09
58367;BME280;57745;42.524;12.052;2023-03-01T00:22:35;95927.75;;;12.05;55.81
58367;BME280;57745;42.524;12.052;2023-03-01T00:25:01;95917.09;;;12.29;55.05
58367;BME280;57745;42.524;12.052;2023-03-01T00:27:27;95905.69;;;12.03;56.14
58367;BME280;57745;42.524;12.052;2023-03-01T00:29:52;95902.84;;;12.06;55.02
58367;BME280;57745;42.524;12.052;2023-03-01T00:32:17;95896.34;;;12.13;55.89
58367;BME280;57745;42.524;12.052;2023-03-01T00:34:43;95884.25;;;11.96;56.08
58367;BME280;57745;42.524;12.052;2023-03-01T00:37:20;95886.88;;;12.17;55.58
58367;BME280;57745;42.524;12.052;2023-03-01T00:39:46;95877.59;;;11.97;56.22
58367;BME280;57745;42.524;12.052;2023-03-01T00:42:12;95873.41;;;12.14;55.63
58367;BME280;57745;42.524;12.052;2023-03-01T00:44:37;95875.94;;;11.99;55.89
58367;BME280;57745;42.524;12.052;2023-03-01T00:47:02;95885.59;;;12.00;55.97
58367;BME280;57745;42.524;12.052;2023-03-01T00:49:28;95877.31;;;12.13;55.92
58367;BME280;57745;42.524;12.052;2023-03-01T00:51:53;95872.50;;;12.08;55.63
58367;BME280;57745;42.524;12.052;2023-03-01T00:54:19;95863.44;;;12.11;55.36
58367;BME280;57745;42.524;12.052;2023-03-01T00:56:44;95882.47;;;12.11;55.84
58367;BME280;57745;42.524;12.052;2023-03-01T00:59:10;95863.69;;;11.95;55.56
58367;BME280;57745;42.524;12.052;2023-03-01T01:01:35;95865.22;;;11.96;56.24
58367;BME280;57745;42.524;12.052;2023-03-01T01:04:04;95879.59;;;12.05;55.42
58367;BME280;57745;42.524;12.052;2023-03-01T01:06:36;95874.91;;;12.15;55.42
58367;BME280;57745;42.524;12.052;2023-03-01T01:09:04;95884.25;;;11.96;55.66
58367;BME280;57745;42.524;12.052;2023-03-01T01:11:30;95881.19;;;11.84;55.75
58367;BME280;57745;42.524;12.052;2023-03-01T01:13:57;95888.72;;;11.90;55.82
58367;BME280;57745;42.524;12.052;2023-03-01T01:16:24;95891.06;;;12.09;55.17
58367;BME280;57745;42.524;12.052;2023-03-01T01:18:50;95893.28;;;11.93;55.49
58367;BME280;57745;42.524;12.052;2023-03-01T01:21:18;95890.88;;;11.95;56.00
58367;BME280;57745;42.524;12.052;2023-03-01T01:23:45;95895.72;;;12.00;55.91
58367;BME280;57745;42.524;12.052;2023-03-01T01:26:14;95902.72;;;12.10;55.44
58367;BME280;57745;42.524;12.052;2023-03-01T01:28:40;95902.13;;;12.24;55.75
58367;BME280;57745;42.524;12.052;2023-03-01T01:31:06;95909.94;;;12.13;56.00
58367;BME280;57745;42.524;12.052;2023-03-01T01:33:32;95913.16;;;12.20;55.70
58367;BME280;57745;42.524;12.052;2023-03-01T01:35:58;95908.72;;;12.05;56.29
58367;BME280;57745;42.524;12.052;2023-03-01T01:38:23;95898.84;;;11.89;56.33
58367;BME280;57745;42.524;12.052;2023-03-01T01:40:49;95898.41;;;11.91;56.99
58367;BME280;57745;42.524;12.052;2023-03-01T01:43:22;95917.06;;;12.10;55.70
58367;BME280;57745;42.524;12.052;2023-03-01T01:45:48;95908.59;;;12.17;55.66
58367;BME280;57745;42.524;12.052;2023-03-01T01:48:21;95909.91;;;12.04;56.15
58367;BME280;57745;42.524;12.052;2023-03-01T01:51:00;95902.22;;;12.02;56.51
58367;BME280;57745;42.524;12.052;2023-03-01T01:53:26;95895.34;;;12.19;55.83
58367;BME280;57745;42.524;12.052;2023-03-01T01:55:56;95885.09;;;12.33;55.80
58367;BME280;57745;42.524;12.052;2023-03-01T01:58:25;95871.00;;;12.25;56.28
58367;BME280;57745;42.524;12.052;2023-03-01T02:00:52;95879.16;;;12.16;56.26
58367;BME280;57745;42.524;12.052;2023-03-01T02:03:27;95876.09;;;12.05;56.31
58367;BME280;57745;42.524;12.052;2023-03-01T02:06:01;95871.41;;;11.96;56.73
58367;BME280;57745;42.524;12.052;2023-03-01T02:08:31;95867.94;;;11.96;56.54
58367;BME280;57745;42.524;12.052;2023-03-01T02:10:59;95853.91;;;11.97;56.05
58367;BME280;57745;42.524;12.052;2023-03-01T02:13:25;95859.78;;;11.96;56.22
58367;BME280;57745;42.524;12.052;2023-03-01T02:15:51;95841.41;;;12.09;55.96
58367;BME280;57745;42.524;12.052;2023-03-01T02:18:18;95847.91;;;12.11;55.83
58367;BME280;57745;42.524;12.052;2023-03-01T02:23:17;95837.28;;;11.95;56.28
58367;BME280;57745;42.524;12.052;2023-03-01T02:25:57;95838.69;;;12.09;55.77
58367;BME280;57745;42.524;12.052;2023-03-01T02:28:28;95836.78;;;11.87;56.83
58367;BME280;57745;42.524;12.052;2023-03-01T02:30:54;95836.56;;;12.13;55.45
58367;BME280;57745;42.524;12.052;2023-03-01T02:33:39;95840.44;;;11.84;56.54
58367;BME280;57745;42.524;12.052;2023-03-01T02:36:12;95843.16;;;11.94;55.94
58367;BME280;57745;42.524;12.052;2023-03-01T02:38:40;95846.00;;;11.90;56.32
58367;BME280;57745;42.524;12.052;2023-03-01T02:41:07;95844.44;;;12.20;55.74
58367;BME280;57745;42.524;12.052;2023-03-01T02:43:33;95852.22;;;12.00;56.01
58367;BME280;57745;42.524;12.052;2023-03-01T02:46:14;95859.44;;;11.84;56.71
58367;BME280;57745;42.524;12.052;2023-03-01T02:48:53;95865.53;;;11.98;56.17
58367;BME280;57745;42.524;12.052;2023-03-01T02:54:31;95865.06;;;11.99;56.68
58367;BME280;57745;42.524;12.052;2023-03-01T02:56:59;95867.91;;;11.86;57.04
58367;BME280;57745;42.524;12.052;2023-03-01T02:59:29;95871.06;;;11.85;57.07
58367;BME280;57745;42.524;12.052;2023-03-01T03:01:56;95865.19;;;11.86;57.34
58367;BME280;57745;42.524;12.052;2023-03-01T03:04:21;95865.34;;;11.92;57.27
58367;BME280;57745;42.524;12.052;2023-03-01T03:06:49;95866.16;;;12.11;57.28
58367;BME280;57745;42.524;12.052;2023-03-01T03:09:15;95863.91;;;12.09;56.91
58367;BME280;57745;42.524;12.052;2023-03-01T03:11:42;95867.44;;;11.88;57.31
58367;BME280;57745;42.524;12.052;2023-03-01T03:14:13;95867.00;;;11.90;57.53
58367;BME280;57745;42.524;12.052;2023-03-01T03:16:49;95864.03;;;12.15;56.94
58367;BME280;57745;42.524;12.052;2023-03-01T03:19:16;95870.97;;;12.07;56.68
58367;BME280;57745;42.524;12.052;2023-03-01T03:21:42;95873.50;;;11.92;57.12
58367;BME280;57745;42.524;12.052;2023-03-01T03:24:07;95866.75;;;12.15;56.92
58367;BME280;57745;42.524;12.052;2023-03-01T03:26:33;95872.19;;;12.15;57.17
58367;BME280;57745;42.524;12.052;2023-03-01T03:28:59;95878.97;;;12.01;57.48
58367;BME280;57745;42.524;12.052;2023-03-01T03:31:24;95874.47;;;12.07;57.30
58367;BME280;57745;42.524;12.052;2023-03-01T03:33:50;95885.22;;;12.20;57.06
58367;BME280;57745;42.524;12.052;2023-03-01T03:36:16;95880.34;;;11.75;58.18
58367;BME280;57745;42.524;12.052;2023-03-01T03:38:43;95882.53;;;11.89;57.92
58367;BME280;57745;42.524;12.052;2023-03-01T03:41:09;95890.44;;;11.96;57.55
58367;BME280;57745;42.524;12.052;2023-03-01T03:43:37;95890.59;;;12.02;57.94
58367;BME280;57745;42.524;12.052;2023-03-01T03:46:03;95888.19;;;12.04;57.72
58367;BME280;57745;42.524;12.052;2023-03-01T03:48:50;95895.16;;;12.14;56.87
58367;BME280;57745;42.524;12.052;2023-03-01T03:51:16;95894.00;;;11.84;57.89
58367;BME280;57745;42.524;12.052;2023-03-01T03:53:43;95904.47;;;11.95;57.72
58367;BME280;57745;42.524;12.052;2023-03-01T03:56:09;95894.22;;;11.68;58.47
58367;BME280;57745;42.524;12.052;2023-03-01T03:58:35;95900.25;;;12.03;57.56
58367;BME280;57745;42.524;12.052;2023-03-01T04:01:01;95901.19;;;12.09;57.95
58367;BME280;57745;42.524;12.052;2023-03-01T04:03:27;95901.72;;;11.85;58.43
58367;BME280;57745;42.524;12.052;2023-03-01T04:05:53;95899.03;;;11.95;57.85
58367;BME280;57745;42.524;12.052;2023-03-01T04:08:20;95901.94;;;12.09;57.88
58367;BME280;57745;42.524;12.052;2023-03-01T04:10:48;95899.06;;;12.04;57.45
58367;BME280;57745;42.524;12.052;2023-03-01T04:13:16;95898.16;;;12.07;57.01
58367;BME280;57745;42.524;12.052;2023-03-01T04:15:44;95893.31;;;12.02;57.45
58367;BME280;57745;42.524;12.052;2023-03-01T04:18:15;95898.06;;;11.79;57.94
58367;BME280;57745;42.524;12.052;2023-03-01T04:20:41;95903.81;;;11.81;57.80
58367;BME280;57745;42.524;12.052;2023-03-01T04:23:13;95893.56;;;11.85;58.00
58367;BME280;57745;42.524;12.052;2023-03-01T04:25:53;95883.84;;;11.75;58.81
58367;BME280;57745;42.524;12.052;2023-03-01T04:28:32;95885.69;;;11.87;57.80
58367;BME280;57745;42.524;12.052;2023-03-01T04:31:10;95890.38;;;11.87;58.05
58367;BME280;57745;42.524;12.052;2023-03-01T04:33:45;95889.50;;;11.90;58.04
58367;BME280;57745;42.524;12.052;2023-03-01T04:36:13;95872.94;;;11.97;57.25
58367;BME280;57745;42.524;12.052;2023-03-01T04:38:39;95880.28;;;11.87;57.92
58367;BME280;57745;42.524;12.052;2023-03-01T04:41:07;95877.16;;;11.98;57.71
58367;BME280;57745;42.524;12.052;2023-03-01T04:43:33;95878.03;;;11.86;57.94
58367;BME280;57745;42.524;12.052;2023-03-01T04:46:08;95878.53;;;11.72;57.80
58367;BME280;57745;42.524;12.052;2023-03-01T04:48:38;95875.31;;;11.64;57.99
58367;BME280;57745;42.524;12.052;2023-03-01T04:51:05;95885.22;;;11.80;57.73
58367;BME280;57745;42.524;12.052;2023-03-01T04:53:31;95883.22;;;11.71;57.84
58367;BME280;57745;42.524;12.052;2023-03-01T04:55:57;95890.69;;;11.89;57.73
58367;BME280;57745;42.524;12.052;2023-03-01T04:58:24;95892.56;;;11.70;57.65
58367;BME280;57745;42.524;12.052;2023-03-01T05:00:51;95895.59;;;11.72;57.37
58367;BME280;57745;42.524;12.052;2023-03-01T05:03:17;95898.00;;;11.70;57.46
58367;BME280;57745;42.524;12.052;2023-03-01T05:05:44;95892.31;;;11.77;56.88
58367;BME280;57745;42.524;12.052;2023-03-01T05:08:09;95893.81;;;11.78;56.99
58367;BME280;57745;42.524;12.052;2023-03-01T05:10:46;95888.13;;;11.85;56.96
58367;BME280;57745;42.524;12.052;2023-03-01T05:13:12;95897.00;;;11.55;57.51
58367;BME280;57745;42.524;12.052;2023-03-01T05:15:48;95895.34;;;11.79;56.81
58367;BME280;57745;42.524;12.052;2023-03-01T05:18:14;95898.38;;;11.81;56.67
58367;BME280;57745;42.524;12.052;2023-03-01T05:20:39;95895.34;;;11.48;57.55
58367;BME280;57745;42.524;12.052;2023-03-01T05:23:05;95886.81;;;11.68;56.64
58367;BME280;57745;42.524;12.052;2023-03-01T05:25:32;95897.81;;;11.65;56.98
58367;BME280;57745;42.524;12.052;2023-03-01T05:28:01;95901.56;;;11.58;57.06
58367;BME280;57745;42.524;12.052;2023-03-01T05:30:31;95900.53;;;11.34;57.58
58367;BME280;57745;42.524;12.052;2023-03-01T05:32:56;95905.16;;;11.55;57.01
58367;BME280;57745;42.524;12.052;2023-03-01T05:35:22;95907.59;;;11.62;57.32
58367;BME280;57745;42.524;12.052;2023-03-01T05:37:48;95913.03;;;11.62;57.33
58367;BME280;57745;42.524;12.052;2023-03-01T05:40:20;95902.91;;;11.63;57.23
58367;BME280;57745;42.524;12.052;2023-03-01T05:42:48;95893.00;;;11.69;57.07
58367;BME280;57745;42.524;12.052;2023-03-01T05:45:15;95891.91;;;11.57;57.40
58367;BME280;57745;42.524;12.052;2023-03-01T05:47:42;95893.72;;;11.60;56.83
58367;BME280;57745;42.524;12.052;2023-03-01T05:50:29;95886.38;;;11.70;56.13
58367;BME280;57745;42.524;12.052;2023-03-01T05:53:00;95884.91;;;11.47;57.09
58367;BME280;57745;42.524;12.052;2023-03-01T05:55:26;95883.16;;;11.62;56.54
58367;BME280;57745;42.524;12.052;2023-03-01T05:57:52;95877.72;;;11.62;56.53
58367;BME280;57745;42.524;12.052;2023-03-01T06:00:20;95883.88;;;11.53;57.21
58367;BME280;57745;42.524;12.052;2023-03-01T06:02:48;95889.72;;;11.43;57.19
58367;BME280;57745;42.524;12.052;2023-03-01T06:05:14;95887.94;;;11.49;56.52
58367;BME280;57745;42.524;12.052;2023-03-01T06:07:41;95891.78;;;11.61;56.25
58367;BME280;57745;42.524;12.052;2023-03-01T06:10:08;95896.34;;;11.73;56.50
58367;BME280;57745;42.524;12.052;2023-03-01T06:12:35;95908.53;;;11.68;56.56
58367;BME280;57745;42.524;12.052;2023-03-01T06:15:02;95913.97;;;11.68;56.93
58367;BME280;57745;42.524;12.052;2023-03-01T06:17:30;95925.16;;;11.70;56.94
58367;BME280;57745;42.524;12.052;2023-03-01T06:19:56;95920.88;;;11.60;56.77
58367;BME280;57745;42.524;12.052;2023-03-01T06:22:21;95921.13;;;11.53;57.12
58367;BME280;57745;42.524;12.052;2023-03-01T06:24:47;95924.59;;;11.53;57.20
58367;BME280;57745;42.524;12.052;2023-03-01T06:27:12;95932.00;;;11.53;57.53
58367;BME280;57745;42.524;12.052;2023-03-01T06:29:38;95926.25;;;11.51;57.20
58367;BME280;57745;42.524;12.052;2023-03-01T06:32:03;95934.91;;;11.59;57.26
58367;BME280;57745;42.524;12.052;2023-03-01T06:34:29;95926.53;;;11.44;57.24
58367;BME280;57745;42.524;12.052;2023-03-01T06:36:55;95921.13;;;11.53;57.26
58367;BME280;57745;42.524;12.052;2023-03-01T06:39:20;95922.78;;;11.50;57.18
58367;BME280;57745;42.524;12.052;2023-03-01T06:41:46;95922.03;;;11.50;57.06
58367;BME280;57745;42.524;12.052;2023-03-01T06:44:11;95923.00;;;11.65;56.62
58367;BME280;57745;42.524;12.052;2023-03-01T06:46:36;95923.25;;;11.49;57.25
58367;BME280;57745;42.524;12.052;2023-03-01T06:49:02;95920.81;;;11.51;57.24
58367;BME280;57745;42.524;12.052;2023-03-01T06:51:32;95916.34;;;11.57;57.14
58367;BME280;57745;42.524;12.052;2023-03-01T06:53:58;95914.63;;;11.50;57.05
58367;BME280;57745;42.524;12.052;2023-03-01T06:56:24;95920.91;;;11.38;56.86
58367;BME280;57745;42.524;12.052;2023-03-01T06:58:49;95923.16;;;11.40;57.28
58367;BME280;57745;42.524;12.052;2023-03-01T07:01:15;95929.31;;;11.62;57.01
58367;BME280;57745;42.524;12.052;2023-03-01T07:03:40;95925.75;;;11.43;57.33
58367;BME280;57745;42.524;12.052;2023-03-01T07:06:05;95923.84;;;11.53;56.82
58367;BME280;57745;42.524;12.052;2023-03-01T07:08:31;95931.13;;;11.56;57.05
58367;BME280;57745;42.524;12.052;2023-03-01T07:10:58;95930.47;;;11.52;57.15
58367;BME280;57745;42.524;12.052;2023-03-01T07:13:24;95928.72;;;11.58;56.66
58367;BME280;57745;42.524;12.052;2023-03-01T07:15:50;95932.00;;;11.53;56.91
58367;BME280;57745;42.524;12.052;2023-03-01T07:18:15;95928.22;;;11.50;56.96
58367;BME280;57745;42.524;12.052;2023-03-01T07:20:41;95934.41;;;11.51;57.45
58367;BME280;57745;42.524;12.052;2023-03-01T07:23:06;95936.59;;;11.12;57.61
58367;BME280;57745;42.524;12.052;2023-03-01T07:25:32;95932.00;;;11.53;56.76
58367;BME280;57745;42.524;12.052;2023-03-01T07:27:58;95935.06;;;11.64;56.74
58367;BME280;57745;42.524;12.052;2023-03-01T07:30:24;95928.69;;;11.49;56.60
58367;BME280;57745;42.524;12.052;2023-03-01T07:32:51;95921.78;;;11.57;56.95
58367;BME280;57745;42.524;12.052;2023-03-01T07:35:17;95925.81;;;11.52;57.29
58367;BME280;57745;42.524;12.052;2023-03-01T07:37:42;95926.09;;;11.45;57.71
58367;BME280;57745;42.524;12.052;2023-03-01T07:40:09;95931.78;;;11.69;56.77
58367;BME280;57745;42.524;12.052;2023-03-01T07:42:34;95929.72;;;11.73;56.41
58367;BME280;57745;42.524;12.052;2023-03-01T07:44:59;95927.44;;;11.50;57.45
58367;BME280;57745;42.524;12.052;2023-03-01T07:47:25;95934.47;;;11.60;56.78
58367;BME280;57745;42.524;12.052;2023-03-01T07:49:50;95936.88;;;11.58;56.86
58367;BME280;57745;42.524;12.052;2023-03-01T07:52:16;95938.75;;;11.70;57.09
58367;BME280;57745;42.524;12.052;2023-03-01T07:54:44;95939.91;;;11.60;57.34
58367;BME280;57745;42.524;12.052;2023-03-01T07:57:10;95944.38;;;11.54;56.83
58367;BME280;57745;42.524;12.052;2023-03-01T07:59:36;95956.81;;;11.64;56.99
58367;BME280;57745;42.524;12.052;2023-03-01T08:02:01;95948.16;;;11.78;56.99
58367;BME280;57745;42.524;12.052;2023-03-01T08:04:27;95953.59;;;11.78;56.85
58367;BME280;57745;42.524;12.052;2023-03-01T08:06:53;95950.81;;;11.69;56.87
58367;BME280;57745;42.524;12.052;2023-03-01T08:09:20;95950.63;;;11.64;57.12
58367;BME280;57745;42.524;12.052;2023-03-01T08:11:45;95955.34;;;11.72;57.32
58367;BME280;57745;42.524;12.052;2023-03-01T08:14:11;95954.22;;;11.82;56.72
58367;BME280;57745;42.524;12.052;2023-03-01T08:16:37;95949.56;;;11.61;57.22
58367;BME280;57745;42.524;12.052;2023-03-01T08:19:07;95955.22;;;11.76;57.10
58367;BME280;57745;42.524;12.052;2023-03-01T08:21:32;95966.22;;;11.72;57.18
58367;BME280;57745;42.524;12.052;2023-03-01T08:24:00;95954.34;;;11.79;56.83
58367;BME280;57745;42.524;12.052;2023-03-01T08:26:26;95951.66;;;11.57;57.83
58367;BME280;57745;42.524;12.052;2023-03-01T08:28:51;95962.94;;;11.77;57.25
58367;BME280;57745;42.524;12.052;2023-03-01T08:31:18;95961.78;;;11.66;57.46
58367;BME280;57745;42.524;12.052;2023-03-01T08:33:45;95957.50;;;11.77;57.43
58367;BME280;57745;42.524;12.052;2023-03-01T08:36:16;95960.44;;;11.61;57.74
58367;BME280;57745;42.524;12.052;2023-03-01T08:38:41;95965.59;;;11.68;57.53
58367;BME280;57745;42.524;12.052;2023-03-01T08:41:07;95967.50;;;11.80;57.34
58367;BME280;57745;42.524;12.052;2023-03-01T08:43:32;95955.34;;;11.94;57.16
58367;BME280;57745;42.524;12.052;2023-03-01T08:45:58;95960.97;;;11.78;57.12
58367;BME280;57745;42.524;12.052;2023-03-01T08:48:24;95955.16;;;11.88;57.16
58367;BME280;57745;42.524;12.052;2023-03-01T08:50:50;95965.44;;;11.94;57.15
58367;BME280;57745;42.524;12.052;2023-03-01T08:53:15;95958.25;;;11.78;57.70
58367;BME280;57745;42.524;12.052;2023-03-01T08:55:41;95954.25;;;11.92;57.07
58367;BME280;57745;42.524;12.052;2023-03-01T08:58:06;95956.94;;;11.82;57.55
58367;BME280;57745;42.524;12.052;2023-03-01T09:00:32;95955.22;;;11.76;57.66
58367;BME280;57745;42.524;12.052;2023-03-01T09:03:00;95957.47;;;11.99;56.98
58367;BME280;57745;42.524;12.052;2023-03-01T09:05:25;95952.97;;;11.74;57.29
58367;BME280;57745;42.524;12.052;2023-03-01T09:07:51;95949.69;;;11.79;57.53
58367;BME280;57745;42.524;12.052;2023-03-01T09:10:16;95950.88;;;11.78;57.76
58367;BME280;57745;42.524;12.052;2023-03-01T09:12:42;95957.00;;;11.70;58.35
58367;BME280;57745;42.524;12.052;2023-03-01T09:15:08;95954.03;;;11.77;57.49
58367;BME280;57745;42.524;12.052;2023-03-01T09:17:34;95949.56;;;11.83;58.02
58367;BME280;57745;42.524;12.052;2023-03-01T09:19:59;95950.03;;;11.91;57.71
58367;BME280;57745;42.524;12.052;2023-03-01T09:22:25;95958.72;;;12.07;57.17
58367;BME280;57745;42.524;12.052;2023-03-01T09:24:50;95963.38;;;11.98;56.86
58367;BME280;57745;42.524;12.052;2023-03-01T09:27:16;95959.78;;;12.10;56.79
58367;BME280;57745;42.524;12.052;2023-03-01T09:29:44;95956.44;;;12.06;57.25
58367;BME280;57745;42.524;12.052;2023-03-01T09:32:09;95954.97;;;11.83;57.99
58367;BME280;57745;42.524;12.052;2023-03-01T09:34:35;95945.84;;;11.99;57.89
58367;BME280;57745;42.524;12.052;2023-03-01T09:37:20;95953.41;;;12.04;57.83
58367;BME280;57745;42.524;12.052;2023-03-01T09:39:46;95949.78;;;11.98;58.46
58367;BME280;57745;42.524;12.052;2023-03-01T09:42:12;95948.47;;;12.11;57.80
58367;BME280;57745;42.524;12.052;2023-03-01T09:47:31;95950.72;;;12.13;59.82
58367;BME280;57745;42.524;12.052;2023-03-01T09:50:13;95952.41;;;12.19;59.71
58367;BME280;57745;42.524;12.052;2023-03-01T09:52:43;95954.38;;;12.19;59.56
58367;BME280;57745;42.524;12.052;2023-03-01T09:55:17;95952.31;;;12.32;59.97
58367;BME280;57745;42.524;12.052;2023-03-01T09:58:21;95951.88;;;12.43;59.39
58367;BME280;57745;42.524;12.052;2023-03-01T10:00:50;95948.06;;;12.31;59.87
58367;BME280;57745;42.524;12.052;2023-03-01T10:03:27;95958.06;;;12.43;60.71
58367;BME280;57745;42.524;12.052;2023-03-01T10:06:05;95960.78;;;12.43;59.73
58367;BME280;57745;42.524;12.052;2023-03-01T10:08:58;95961.09;;;12.45;59.42
58367;BME280;57745;42.524;12.052;2023-03-01T10:11:36;95966.53;;;12.45;59.81
58367;BME280;57745;42.524;12.052;2023-03-01T10:16:51;95968.53;;;12.63;58.76
58367;BME280;57745;42.524;12.052;2023-03-01T10:19:27;95971.88;;;12.58;59.21
58367;BME280;57745;42.524;12.052;2023-03-01T10:21:58;95973.06;;;12.57;59.46
58367;BME280;57745;42.524;12.052;2023-03-01T10:24:26;95976.88;;;12.59;58.90
58367;BME280;57745;42.524;12.052;2023-03-01T10:26:58;95978.38;;;12.61;59.64
58367;BME280;57745;42.524;12.052;2023-03-01T10:29:36;95978.41;;;12.70;59.53
58367;BME280;57745;42.524;12.052;2023-03-01T10:32:04;95982.00;;;12.67;58.36
58367;BME280;57745;42.524;12.052;2023-03-01T10:34:34;95976.25;;;12.65;58.13
58367;BME280;57745;42.524;12.052;2023-03-01T10:37:12;95977.75;;;12.56;58.97
58367;BME280;57745;42.524;12.052;2023-03-01T10:39:55;95983.31;;;12.44;58.55
58367;BME280;57745;42.524;12.052;2023-03-01T10:42:29;95981.69;;;12.55;59.01
58367;BME280;57745;42.524;12.052;2023-03-01T10:44:56;95984.63;;;12.30;58.31
58367;BME280;57745;42.524;12.052;2023-03-01T10:47:24;95983.66;;;12.64;57.70
58367;BME280;57745;42.524;12.052;2023-03-01T10:50:01;95978.66;;;12.53;57.64
58367;BME280;57745;42.524;12.052;2023-03-01T10:52:31;95976.88;;;12.59;57.00
58367;BME280;57745;42.524;12.052;2023-03-01T10:55:23;95976.25;;;12.55;57.32
58367;BME280;57745;42.524;12.052;2023-03-01T10:58:06;95978.97;;;12.55;58.19
58367;BME280;57745;42.524;12.052;2023-03-01T11:00:32;95972.94;;;12.61;58.28
58367;BME280;57745;42.524;12.052;2023-03-01T11:05:25;95968.22;;;12.52;58.70
58367;BME280;57745;42.524;12.052;2023-03-01T11:07:56;95972.31;;;12.56;57.40
58367;BME280;57745;42.524;12.052;2023-03-01T11:10:28;95974.53;;;12.40;57.60
58367;BME280;57745;42.524;12.052;2023-03-01T11:13:23;95979.53;;;12.50;57.38
58367;BME280;57745;42.524;12.052;2023-03-01T11:16:12;95977.03;;;12.74;57.98
58367;BME280;57745;42.524;12.052;2023-03-01T11:18:37;95979.28;;;12.76;57.62
58367;BME280;57745;42.524;12.052;2023-03-01T11:21:05;95970.22;;;12.70;57.66
58367;BME280;57745;42.524;12.052;2023-03-01T11:23:34;95970.81;;;12.55;57.76
58367;BME280;57745;42.524;12.052;2023-03-01T11:26:07;95958.53;;;12.51;57.66
58367;BME280;57745;42.524;12.052;2023-03-01T11:28:35;95958.13;;;12.71;57.62
58367;BME280;57745;42.524;12.052;2023-03-01T11:31:04;95958.72;;;12.66;57.58
58367;BME280;57745;42.524;12.052;2023-03-01T11:38:37;95952.84;;;12.76;56.59
58367;BME280;57745;42.524;12.052;2023-03-01T11:41:12;95956.44;;;12.64;57.43
58367;BME280;57745;42.524;12.052;2023-03-01T11:44:01;95951.47;;;12.63;57.55
58367;BME280;57745;42.524;12.052;2023-03-01T11:57:08;95937.09;;;12.62;56.95
58367;BME280;57745;42.524;12.052;2023-03-01T12:18:11;95915.50;;;12.58;57.20
58367;BME280;57745;42.524;12.052;2023-03-01T12:23:20;95911.56;;;12.59;57.95
58367;BME280;57745;42.524;12.052;2023-03-01T12:49:59;95890.09;;;12.52;58.32
58367;BME280;57745;42.524;12.052;2023-03-01T12:52:35;95884.97;;;12.54;58.22
58367;BME280;57745;42.524;12.052;2023-03-01T12:55:39;95879.25;;;12.71;57.50
58367;BME280;57745;42.524;12.052;2023-03-01T12:58:28;95886.03;;;12.66;57.25
58367;BME280;57745;42.524;12.052;2023-03-01T13:12:43;95880.59;;;12.57;58.39
58367;BME280;57745;42.524;12.052;2023-03-01T13:17:51;95876.34;;;12.47;58.39
58367;BME280;57745;42.524;12.052;2023-03-01T13:20:30;95880.28;;;12.64;57.52
58367;BME280;57745;42.524;12.052;2023-03-01T13:23:07;95870.16;;;12.65;57.22
58367;BME280;57745;42.524;12.052;2023-03-01T13:25:33;95876.22;;;12.59;57.12
58367;BME280;57745;42.524;12.052;2023-03-01T13:31:01;95871.22;;;12.58;57.59
58367;BME280;57745;42.524;12.052;2023-03-01T13:35:54;95862.00;;;12.55;57.71
58367;BME280;57745;42.524;12.052;2023-03-01T13:44:28;95867.13;;;12.63;57.37
58367;BME280;57745;42.524;12.052;2023-03-01T13:49:59;95865.47;;;12.65;57.63
58367;BME280;57745;42.524;12.052;2023-03-01T13:55:05;95863.81;;;12.68;57.02
58367;BME280;57745;42.524;12.052;2023-03-01T13:57:36;95851.72;;;12.59;57.85
58367;BME280;57745;42.524;12.052;2023-03-01T14:00:04;95860.47;;;12.64;57.61
58367;BME280;57745;42.524;12.052;2023-03-01T14:02:30;95851.44;;;12.85;57.23
58367;BME280;57745;42.524;12.052;2023-03-01T14:04:58;95852.00;;;12.89;56.91
58367;BME280;57745;42.524;12.052;2023-03-01T14:07:24;95854.44;;;12.78;57.70
58367;BME280;57745;42.524;12.052;2023-03-01T14:09:53;95858.06;;;12.75;57.91
58367;BME280;57745;42.524;12.052;2023-03-01T14:18:26;95859.28;;;12.83;57.06
58367;BME280;57745;42.524;12.052;2023-03-01T14:20:44;95864.25;;;12.75;57.10
58367;BME280;57745;42.524;12.052;2023-03-01T14:23:19;95856.84;;;12.94;56.80
58367;BME280;57745;42.524;12.052;2023-03-01T14:25:54;95857.16;;;12.69;57.12
58367;BME280;57745;42.524;12.052;2023-03-01T14:28:32;95849.59;;;12.54;57.12
58367;BME280;57745;42.524;12.052;2023-03-01T14:31:00;95855.66;;;12.58;57.99
58367;BME280;57745;42.524;12.052;2023-03-01T14:36:07;95850.81;;;12.63;57.95
58367;BME280;57745;42.524;12.052;2023-03-01T14:41:10;95854.44;;;12.87;57.95
58367;BME280;57745;42.524;12.052;2023-03-01T14:43:41;95853.69;;;12.95;57.06
58367;BME280;57745;42.524;12.052;2023-03-01T14:46:18;95849.88;;;13.02;56.47
58367;BME280;57745;42.524;12.052;2023-03-01T14:48:44;95849.91;;;12.84;56.92
58367;BME280;57745;42.524;12.052;2023-03-01T14:51:11;95852.91;;;12.86;56.89
58367;BME280;57745;42.524;12.052;2023-03-01T14:53:37;95860.47;;;13.00;57.23
58367;BME280;57745;42.524;12.052;2023-03-01T14:56:03;95856.69;;;13.07;56.77